Terminal Aerodrome Forecast
Issued by NWS

Home | Current Version | Previous Version | Text Only | Print | Product List | Glossary On
Versions: 1 2 3 4 5 6 7 8 9 10 11 12 13 14 15 16 17 18 19 20 21 22
000
FTUS41 KILN 292300
TAFLUK
TAF
KLUK 292340Z 3000/3024 27014G24KT P6SM VCSH BKN018 OVC026
     FM300200 29012G20KT P6SM OVC018
     FM300900 30011KT P6SM OVC025
     FM301400 33012KT P6SM BKN028
     FM301800 34011KT P6SM SCT028=

USA.gov is the U.S. government's official web portal to all federal, state and local government web resources and services.